Time;durP1;ratioP1;P1;durP2;ratioP2;P2;SDS_P1;SDS_P2;PMS_P1;PMS_P2;Temp;Humidity;BMP_temperature;BMP_pressure;BME280_temperature;BME280_humidity;BME280_pressure;Samples;Min_cycle;Max_cycle;Signal;HPM_P1;HPM_P2
2024/01/14 00:01:16;;;;;;;3.75;2.05;;;;;;;;;;5884671;28;20052;-78
2024/01/14 00:04:07;;;;;;;6.63;2.65;;;;;;;;;;5888570;28;20056;-79
2024/01/14 00:06:58;;;;;;;6.00;3.20;;;;;;;;;;5889045;28;20068;-78
2024/01/14 00:09:49;;;;;;;4.07;2.85;;;;;;;;;;5889941;28;20122;-78
2024/01/14 00:12:39;;;;;;;4.05;2.42;;;;;;;;;;5888028;28;20039;-78
2024/01/14 00:15:30;;;;;;;4.38;2.70;;;;;;;;;;5888469;28;20048;-78
2024/01/14 00:18:21;;;;;;;8.82;2.83;;;;;;;;;;5888132;28;20052;-78
2024/01/14 00:21:13;;;;;;;4.65;2.17;;;;;;;;;;5888245;28;20494;-78
2024/01/14 00:24:04;;;;;;;5.95;2.95;;;;;;;;;;5888421;28;20055;-78
2024/01/14 00:26:55;;;;;;;8.57;3.03;;;;;;;;;;5888623;28;20040;-78
2024/01/14 00:29:46;;;;;;;2.40;2.10;;;;;;;;;;5888102;28;20037;-78
2024/01/14 00:32:37;;;;;;;3.95;2.45;;;;;;;;;;5888086;28;20037;-78
2024/01/14 00:35:27;;;;;;;5.10;2.75;;;;;;;;;;5905040;28;20068;-78
2024/01/14 00:38:18;;;;;;;5.35;2.33;;;;;;;;;;5887940;28;20442;-79
2024/01/14 00:41:09;;;;;;;2.40;1.92;;;;;;;;;;5888215;28;20049;-79
2024/01/14 00:44:00;;;;;;;3.95;2.08;;;;;;;;;;5889749;28;20049;-78
2024/01/14 00:46:52;;;;;;;4.28;2.83;;;;;;;;;;5888227;28;20060;-79
2024/01/14 00:49:43;;;;;;;6.05;3.40;;;;;;;;;;5887857;28;20051;-78
2024/01/14 00:52:34;;;;;;;2.17;1.77;;;;;;;;;;5887501;28;20045;-78
2024/01/14 00:55:24;;;;;;;4.13;2.63;;;;;;;;;;5887425;28;20044;-78
2024/01/14 00:58:15;;;;;;;5.90;2.97;;;;;;;;;;5888837;28;20048;-78
2024/01/14 01:01:06;;;;;;;3.67;2.13;;;;;;;;;;5884470;28;20056;-79
2024/01/14 01:03:57;;;;;;;4.60;2.60;;;;;;;;;;5871511;28;20048;-78
2024/01/14 01:06:48;;;;;;;3.42;2.10;;;;;;;;;;5880702;28;20041;-78
2024/01/14 01:09:42;;;;;;;6.28;2.85;;;;;;;;;;5880412;28;20049;-78
2024/01/14 01:12:34;;;;;;;2.58;2.22;;;;;;;;;;5863752;28;20056;-78
2024/01/14 01:15:25;;;;;;;2.50;1.83;;;;;;;;;;5880294;28;20045;-78
2024/01/14 01:18:15;;;;;;;2.60;2.20;;;;;;;;;;5863888;28;20046;-78
2024/01/14 01:21:07;;;;;;;4.43;2.90;;;;;;;;;;5864008;28;20519;-78
2024/01/14 01:23:58;;;;;;;5.03;1.85;;;;;;;;;;5880859;28;20045;-78
2024/01/14 01:26:48;;;;;;;2.25;1.70;;;;;;;;;;5863847;28;20042;-78
2024/01/14 01:29:39;;;;;;;4.25;2.65;;;;;;;;;;5863438;28;20096;-78
2024/01/14 01:32:30;;;;;;;4.88;2.65;;;;;;;;;;5863661;28;20055;-79
2024/01/14 01:35:21;;;;;;;3.55;1.65;;;;;;;;;;5864928;28;20407;-78
2024/01/14 01:38:12;;;;;;;2.75;1.55;;;;;;;;;;5863396;28;20045;-78
2024/01/14 01:41:03;;;;;;;5.63;2.63;;;;;;;;;;5863446;28;20038;-78
2024/01/14 01:43:54;;;;;;;5.85;2.65;;;;;;;;;;5847691;28;20053;-78
2024/01/14 01:46:46;;;;;;;2.55;1.95;;;;;;;;;;5896382;28;20072;-78
2024/01/14 01:49:37;;;;;;;3.60;2.25;;;;;;;;;;5863458;28;20515;-78
2024/01/14 01:52:28;;;;;;;7.65;2.42;;;;;;;;;;5863239;28;20506;-78
2024/01/14 01:55:19;;;;;;;5.13;2.25;;;;;;;;;;5862974;28;20482;-78
2024/01/14 01:58:10;;;;;;;5.72;3.72;;;;;;;;;;5864606;28;20056;-78
2024/01/14 02:01:05;;;;;;;3.72;3.33;;;;;;;;;;5863138;28;20052;-78
2024/01/14 02:03:56;;;;;;;2.95;1.58;;;;;;;;;;5863638;28;20045;-78
2024/01/14 02:06:47;;;;;;;4.20;1.92;;;;;;;;;;5879192;28;20076;-78
2024/01/14 02:09:38;;;;;;;1.70;1.60;;;;;;;;;;5879324;28;20125;-78
2024/01/14 02:12:29;;;;;;;10.13;2.78;;;;;;;;;;5864213;28;20068;-78
2024/01/14 02:15:20;;;;;;;2.97;1.90;;;;;;;;;;5862754;28;20422;-79
2024/01/14 02:18:11;;;;;;;2.80;2.17;;;;;;;;;;5862557;28;20065;-78
2024/01/14 02:21:02;;;;;;;5.82;2.30;;;;;;;;;;5879612;28;20096;-78
2024/01/14 02:24:24;;;;;;;3.60;2.47;;;;;;;;;;5879244;28;20064;-78
2024/01/14 02:27:16;;;;;;;2.47;1.90;;;;;;;;;;5841442;28;20049;-78
2024/01/14 02:30:09;;;;;;;4.90;2.10;;;;;;;;;;5862382;28;20436;-78
2024/01/14 02:33:00;;;;;;;5.38;1.98;;;;;;;;;;5862903;28;20504;-78
2024/01/14 02:35:51;;;;;;;3.53;2.35;;;;;;;;;;5879124;28;20183;-78
2024/01/14 02:38:42;;;;;;;9.00;2.00;;;;;;;;;;5895511;28;20046;-79
2024/01/14 02:41:34;;;;;;;8.00;2.38;;;;;;;;;;5878859;28;20053;-78
2024/01/14 02:44:25;;;;;;;3.08;2.28;;;;;;;;;;5862291;28;20041;-78
2024/01/14 02:47:16;;;;;;;3.45;2.00;;;;;;;;;;5862147;28;20053;-79
2024/01/14 02:50:07;;;;;;;2.85;1.60;;;;;;;;;;5878573;28;20052;-78
2024/01/14 02:52:58;;;;;;;4.88;2.67;;;;;;;;;;5862242;28;20049;-78
2024/01/14 02:55:48;;;;;;;3.05;2.38;;;;;;;;;;5863137;28;20129;-78
2024/01/14 02:58:39;;;;;;;6.05;2.55;;;;;;;;;;5861768;28;20056;-78
2024/01/14 03:01:30;;;;;;;3.28;2.38;;;;;;;;;;5878349;28;20180;-78
2024/01/14 03:04:21;;;;;;;6.68;2.60;;;;;;;;;;5861853;28;20148;-78
2024/01/14 03:07:13;;;;;;;9.00;3.67;;;;;;;;;;5861479;28;20049;-78
2024/01/14 03:10:04;;;;;;;3.88;2.67;;;;;;;;;;5894843;28;20053;-78
2024/01/14 03:12:54;;;;;;;2.60;1.98;;;;;;;;;;5863272;28;20046;-78
2024/01/14 03:15:45;;;;;;;5.30;2.22;;;;;;;;;;5862578;28;20411;-78
2024/01/14 03:18:36;;;;;;;2.38;2.00;;;;;;;;;;5861334;28;20045;-78
2024/01/14 03:21:27;;;;;;;4.10;2.67;;;;;;;;;;5863005;28;20411;-78
2024/01/14 03:24:18;;;;;;;3.05;2.50;;;;;;;;;;5861358;28;20045;-78
2024/01/14 03:27:09;;;;;;;2.95;1.75;;;;;;;;;;5877899;28;20145;-79
2024/01/14 03:30:00;;;;;;;4.57;2.72;;;;;;;;;;5861765;28;20048;-79
2024/01/14 03:32:51;;;;;;;3.28;2.20;;;;;;;;;;5861490;28;20041;-79
2024/01/14 03:35:41;;;;;;;7.45;3.05;;;;;;;;;;5877731;28;20041;-78
2024/01/14 03:38:33;;;;;;;5.60;1.90;;;;;;;;;;5865889;28;20049;-78
2024/01/14 03:41:24;;;;;;;2.00;1.85;;;;;;;;;;5866122;28;20049;-78
2024/01/14 03:44:14;;;;;;;4.35;1.95;;;;;;;;;;5898922;28;20049;-78
2024/01/14 03:47:05;;;;;;;3.97;1.90;;;;;;;;;;5882287;28;20045;-78
2024/01/14 03:49:56;;;;;;;2.08;1.90;;;;;;;;;;5882993;28;20049;-79
2024/01/14 03:52:47;;;;;;;2.58;2.33;;;;;;;;;;5865716;28;20084;-79
2024/01/14 03:55:37;;;;;;;4.78;2.63;;;;;;;;;;5866725;28;20145;-78
2024/01/14 03:58:28;;;;;;;4.05;2.50;;;;;;;;;;5866924;28;20037;-78
2024/01/14 04:01:19;;;;;;;3.40;2.22;;;;;;;;;;5882028;28;20053;-78
2024/01/14 04:04:10;;;;;;;4.10;2.55;;;;;;;;;;5865494;28;20045;-78
2024/01/14 04:07:01;;;;;;;4.05;2.65;;;;;;;;;;5865477;28;20045;-78
2024/01/14 04:09:51;;;;;;;3.47;2.03;;;;;;;;;;5865935;28;20049;-79
2024/01/14 04:12:42;;;;;;;4.25;2.65;;;;;;;;;;5865039;28;20132;-79
2024/01/14 04:15:33;;;;;;;2.58;2.30;;;;;;;;;;5866787;28;20408;-79
2024/01/14 04:18:24;;;;;;;2.63;1.92;;;;;;;;;;5865281;28;20103;-78
2024/01/14 04:21:22;;;;;;;2.75;2.00;;;;;;;;;;5865111;28;20061;-78
2024/01/14 04:24:13;;;;;;;5.43;2.40;;;;;;;;;;5866486;28;20515;-78
2024/01/14 04:27:04;;;;;;;6.00;2.72;;;;;;;;;;5865077;28;20045;-78
2024/01/14 04:29:55;;;;;;;4.43;2.67;;;;;;;;;;5866954;28;20152;-78
2024/01/14 04:32:45;;;;;;;3.35;2.28;;;;;;;;;;5881407;28;20088;-79
2024/01/14 04:35:40;;;;;;;3.17;2.83;;;;;;;;;;5866032;28;20045;-78
2024/01/14 04:38:31;;;;;;;2.30;1.88;;;;;;;;;;5864729;28;20079;-79
2024/01/14 04:41:22;;;;;;;4.75;3.33;;;;;;;;;;5881330;28;20384;-79
2024/01/14 04:44:12;;;;;;;2.15;1.60;;;;;;;;;;5866009;28;20048;-79
2024/01/14 04:47:04;;;;;;;5.20;2.55;;;;;;;;;;5865724;28;20041;-79
2024/01/14 04:49:54;;;;;;;2.92;2.13;;;;;;;;;;5898263;28;20072;-79
2024/01/14 04:52:46;;;;;;;5.50;3.03;;;;;;;;;;5864678;28;20068;-78
2024/01/14 04:55:37;;;;;;;3.20;2.58;;;;;;;;;;5864130;28;20045;-78
2024/01/14 04:58:28;;;;;;;2.28;1.98;;;;;;;;;;5864566;28;20522;-79
2024/01/14 05:01:19;;;;;;;1.75;1.30;;;;;;;;;;5864426;28;20056;-79
2024/01/14 05:04:09;;;;;;;4.35;2.13;;;;;;;;;;5864143;28;20041;-78
2024/01/14 05:07:00;;;;;;;4.88;2.38;;;;;;;;;;5865654;28;20069;-78
2024/01/14 05:09:52;;;;;;;2.78;2.28;;;;;;;;;;5864600;28;20053;-79
2024/01/14 05:12:43;;;;;;;6.43;2.85;;;;;;;;;;5863800;28;20049;-79
2024/01/14 05:15:34;;;;;;;2.75;2.13;;;;;;;;;;5865309;28;20488;-78
2024/01/14 05:18:24;;;;;;;3.65;2.35;;;;;;;;;;5865376;28;20049;-79
2024/01/14 05:21:16;;;;;;;3.53;1.98;;;;;;;;;;5863723;28;20140;-79
2024/01/14 05:24:07;;;;;;;3.17;1.95;;;;;;;;;;5896886;28;20056;-79
2024/01/14 05:26:58;;;;;;;3.50;2.30;;;;;;;;;;5880931;28;20059;-79
2024/01/14 05:29:49;;;;;;;2.33;2.08;;;;;;;;;;5896448;28;20051;-79
2024/01/14 05:32:40;;;;;;;6.03;2.33;;;;;;;;;;5863564;28;20614;-78
2024/01/14 05:35:31;;;;;;;5.65;3.08;;;;;;;;;;5863727;28;20053;-78
2024/01/14 05:38:22;;;;;;;2.13;1.63;;;;;;;;;;5880159;28;20415;-79
2024/01/14 05:41:13;;;;;;;5.85;2.80;;;;;;;;;;5879965;28;20556;-78
2024/01/14 05:44:03;;;;;;;3.03;2.40;;;;;;;;;;5864767;28;20502;-78
2024/01/14 05:46:54;;;;;;;2.17;1.58;;;;;;;;;;5865035;28;20049;-79
2024/01/14 05:49:45;;;;;;;5.40;3.85;;;;;;;;;;5896483;28;20042;-80
2024/01/14 05:52:36;;;;;;;3.55;2.58;;;;;;;;;;5864555;28;20128;-81
2024/01/14 05:55:27;;;;;;;5.28;2.75;;;;;;;;;;5863196;28;20053;-81
2024/01/14 05:58:17;;;;;;;2.05;1.85;;;;;;;;;;5863063;28;20476;-81
2024/01/14 06:01:08;;;;;;;5.25;2.22;;;;;;;;;;5878951;28;20072;-80
2024/01/14 06:03:59;;;;;;;3.10;2.42;;;;;;;;;;5864820;28;20120;-80
2024/01/14 06:06:50;;;;;;;4.13;2.80;;;;;;;;;;5863047;28;20051;-80
2024/01/14 06:09:41;;;;;;;7.75;3.03;;;;;;;;;;5863809;28;20337;-80
2024/01/14 06:12:31;;;;;;;9.15;3.45;;;;;;;;;;5864078;28;20045;-81
2024/01/14 06:15:22;;;;;;;2.65;1.85;;;;;;;;;;5862465;28;20122;-81
2024/01/14 06:18:13;;;;;;;4.25;3.03;;;;;;;;;;5879097;28;20077;-80
2024/01/14 06:21:04;;;;;;;3.42;2.15;;;;;;;;;;5862642;28;20495;-81
2024/01/14 06:23:55;;;;;;;5.50;2.42;;;;;;;;;;5879668;28;20049;-81
2024/01/14 06:26:46;;;;;;;5.13;3.20;;;;;;;;;;5862464;28;20056;-81
2024/01/14 06:29:37;;;;;;;2.15;1.85;;;;;;;;;;5862383;28;20049;-81
2024/01/14 06:32:27;;;;;;;3.78;2.35;;;;;;;;;;5879143;28;20049;-81
2024/01/14 06:35:18;;;;;;;9.55;2.65;;;;;;;;;;5862112;28;20499;-80
2024/01/14 06:38:09;;;;;;;5.22;3.28;;;;;;;;;;5862196;28;20049;-80
2024/01/14 06:41:00;;;;;;;4.57;3.15;;;;;;;;;;5862594;28;20061;-81
2024/01/14 06:44:00;;;;;;;6.00;2.15;;;;;;;;;;5863781;28;20115;-80
2024/01/14 06:46:51;;;;;;;4.93;2.58;;;;;;;;;;5863483;28;20049;-80
2024/01/14 06:49:42;;;;;;;11.27;3.20;;;;;;;;;;5878441;28;20056;-81
2024/01/14 06:52:33;;;;;;;5.40;2.85;;;;;;;;;;5863315;28;20408;-80
2024/01/14 06:55:24;;;;;;;5.43;3.30;;;;;;;;;;5861817;28;20439;-81
2024/01/14 06:58:15;;;;;;;3.10;2.55;;;;;;;;;;5878569;28;20053;-81
2024/01/14 07:01:07;;;;;;;4.65;3.50;;;;;;;;;;5878104;28;20076;-80
2024/01/14 07:04:03;;;;;;;3.72;2.70;;;;;;;;;;5863196;28;20072;-80
2024/01/14 07:06:54;;;;;;;10.23;3.20;;;;;;;;;;5862221;28;20043;-80
2024/01/14 07:09:45;;;;;;;6.22;2.95;;;;;;;;;;5862066;28;20041;-81
2024/01/14 07:12:36;;;;;;;6.15;3.38;;;;;;;;;;5877773;28;20052;-80
2024/01/14 07:15:27;;;;;;;6.40;3.38;;;;;;;;;;5861567;28;20175;-81
2024/01/14 07:18:18;;;;;;;4.22;3.13;;;;;;;;;;5864238;28;20104;-81
2024/01/14 07:21:10;;;;;;;3.45;2.92;;;;;;;;;;5877993;28;20068;-81
2024/01/14 07:24:01;;;;;;;6.68;3.50;;;;;;;;;;5861407;28;20046;-80
2024/01/14 07:26:52;;;;;;;5.95;3.30;;;;;;;;;;5878470;28;20069;-81
2024/01/14 07:29:43;;;;;;;2.72;2.17;;;;;;;;;;5877747;28;20042;-80
2024/01/14 07:32:34;;;;;;;6.75;3.75;;;;;;;;;;5861346;28;20388;-80
2024/01/14 07:35:25;;;;;;;7.22;4.88;;;;;;;;;;5877806;28;20056;-81
2024/01/14 07:38:16;;;;;;;14.13;8.18;;;;;;;;;;5861214;28;20068;-81
2024/01/14 07:41:09;;;;;;;9.18;4.00;;;;;;;;;;5861018;28;20049;-80
2024/01/14 07:44:00;;;;;;;10.00;4.85;;;;;;;;;;5861805;28;20045;-80
2024/01/14 07:46:51;;;;;;;13.25;4.25;;;;;;;;;;5861096;28;20054;-80
2024/01/14 07:49:48;;;;;;;12.50;5.28;;;;;;;;;;5860966;28;20471;-81
2024/01/14 07:52:39;;;;;;;8.13;4.78;;;;;;;;;;5878527;28;20165;-81
2024/01/14 07:55:30;;;;;;;6.82;3.28;;;;;;;;;;5861129;28;20049;-81
2024/01/14 07:58:21;;;;;;;10.00;3.85;;;;;;;;;;5860773;28;20050;-81
2024/01/14 08:01:12;;;;;;;7.95;3.75;;;;;;;;;;5877435;28;20522;-81
2024/01/14 08:04:03;;;;;;;6.50;4.45;;;;;;;;;;5860385;28;20613;-80
2024/01/14 08:06:54;;;;;;;6.95;3.70;;;;;;;;;;5877558;28;20046;-80
2024/01/14 08:09:45;;;;;;;7.18;3.50;;;;;;;;;;5860424;28;20064;-81
2024/01/14 08:12:35;;;;;;;5.05;2.28;;;;;;;;;;5877118;28;20044;-81
2024/01/14 08:15:31;;;;;;;17.30;6.95;;;;;;;;;;5860911;28;20403;-80
2024/01/14 08:18:32;;;;;;;13.23;5.65;;;;;;;;;;5860782;28;20038;-81
2024/01/14 08:21:23;;;;;;;11.07;6.32;;;;;;;;;;5860562;28;20046;-80
2024/01/14 08:24:13;;;;;;;7.75;5.03;;;;;;;;;;5864039;28;20140;-79
2024/01/14 08:27:04;;;;;;;5.70;3.95;;;;;;;;;;5864469;28;20045;-80
2024/01/14 08:29:55;;;;;;;6.20;4.07;;;;;;;;;;5866464;28;20053;-81
2024/01/14 08:32:46;;;;;;;6.63;3.63;;;;;;;;;;5864709;28;20465;-80
2024/01/14 08:35:37;;;;;;;8.77;3.83;;;;;;;;;;5864699;28;20080;-81
2024/01/14 08:38:28;;;;;;;6.43;4.35;;;;;;;;;;5864842;28;20049;-81
2024/01/14 08:41:24;;;;;;;7.05;3.70;;;;;;;;;;5864430;28;20041;-80
2024/01/14 08:44:15;;;;;;;6.30;3.65;;;;;;;;;;5865597;28;20053;-80
2024/01/14 08:47:08;;;;;;;4.35;3.00;;;;;;;;;;5865891;28;20054;-80
2024/01/14 08:49:59;;;;;;;6.20;4.30;;;;;;;;;;5866056;28;20187;-81
2024/01/14 08:52:50;;;;;;;13.02;4.43;;;;;;;;;;5866058;28;20404;-81
2024/01/14 08:55:40;;;;;;;8.68;4.22;;;;;;;;;;5896974;28;20041;-80
2024/01/14 08:58:31;;;;;;;5.18;3.83;;;;;;;;;;5865316;28;20411;-81
2024/01/14 09:01:22;;;;;;;9.45;4.35;;;;;;;;;;5865228;28;20068;-81
2024/01/14 09:04:13;;;;;;;5.63;3.47;;;;;;;;;;5865078;28;20060;-81
2024/01/14 09:07:04;;;;;;;9.95;5.20;;;;;;;;;;5865406;28;20418;-80
2024/01/14 09:09:55;;;;;;;7.43;3.35;;;;;;;;;;5864770;28;20510;-80
2024/01/14 09:12:46;;;;;;;6.47;3.53;;;;;;;;;;5880247;28;20048;-81
2024/01/14 09:15:37;;;;;;;9.05;4.28;;;;;;;;;;5880085;28;20060;-81
2024/01/14 09:18:28;;;;;;;5.88;3.38;;;;;;;;;;5880369;28;20407;-80
2024/01/14 09:21:19;;;;;;;3.15;2.47;;;;;;;;;;5863529;28;20049;-80
2024/01/14 09:24:10;;;;;;;7.07;5.45;;;;;;;;;;5863305;28;20049;-81
2024/01/14 09:27:03;;;;;;;5.28;3.53;;;;;;;;;;5865081;28;20061;-80
2024/01/14 09:29:54;;;;;;;13.30;4.70;;;;;;;;;;5865347;28;20786;-81
2024/01/14 09:32:45;;;;;;;7.78;4.05;;;;;;;;;;5863407;28;20042;-80
2024/01/14 09:35:35;;;;;;;7.30;3.72;;;;;;;;;;5862340;28;20056;-81
2024/01/14 09:38:26;;;;;;;8.05;4.38;;;;;;;;;;5864929;28;20123;-81
2024/01/14 09:41:17;;;;;;;7.07;4.15;;;;;;;;;;5879615;28;20053;-81
2024/01/14 09:44:13;;;;;;;7.32;5.03;;;;;;;;;;5863237;28;20045;-81
2024/01/14 09:47:08;;;;;;;7.95;4.10;;;;;;;;;;5879235;28;20490;-81
2024/01/14 09:50:00;;;;;;;14.15;5.30;;;;;;;;;;5895814;28;20041;-81
2024/01/14 09:52:52;;;;;;;9.10;5.00;;;;;;;;;;5863232;28;20523;-80
2024/01/14 09:55:47;;;;;;;6.22;3.55;;;;;;;;;;5862933;28;20037;-81
2024/01/14 09:58:40;;;;;;;5.40;3.85;;;;;;;;;;5862598;28;20063;-81
2024/01/14 10:01:32;;;;;;;9.35;4.15;;;;;;;;;;5862796;28;20041;-81
2024/01/14 10:04:23;;;;;;;12.98;5.13;;;;;;;;;;5862691;28;20069;-81
2024/01/14 10:07:15;;;;;;;9.73;4.45;;;;;;;;;;5862353;28;20126;-81
2024/01/14 10:10:07;;;;;;;14.85;6.85;;;;;;;;;;5895453;28;20380;-80
2024/01/14 10:12:58;;;;;;;19.83;9.18;;;;;;;;;;5864407;28;20049;-80
2024/01/14 10:15:49;;;;;;;13.73;5.93;;;;;;;;;;5862146;28;20049;-81
2024/01/14 10:18:51;;;;;;;17.45;7.53;;;;;;;;;;5877826;28;20046;-81
2024/01/14 10:21:42;;;;;;;11.13;7.45;;;;;;;;;;5862398;28;20072;-81
2024/01/14 10:24:33;;;;;;;16.92;8.63;;;;;;;;;;5863588;28;20457;-81
2024/01/14 10:27:26;;;;;;;24.63;10.23;;;;;;;;;;5862045;28;20080;-81
2024/01/14 10:30:27;;;;;;;23.90;9.15;;;;;;;;;;5861730;28;20052;-80
2024/01/14 10:33:18;;;;;;;20.85;6.70;;;;;;;;;;5862110;28;20503;-81
2024/01/14 10:36:13;;;;;;;22.48;6.65;;;;;;;;;;5863055;28;20042;-81
2024/01/14 10:39:07;;;;;;;12.75;5.75;;;;;;;;;;5861952;28;20091;-81
2024/01/14 10:42:00;;;;;;;15.90;9.65;;;;;;;;;;5862967;28;20049;-81
2024/01/14 10:44:51;;;;;;;16.65;7.35;;;;;;;;;;5862045;28;20127;-82
2024/01/14 10:47:47;;;;;;;23.30;9.73;;;;;;;;;;5861550;28;20411;-81
2024/01/14 10:50:42;;;;;;;16.42;9.10;;;;;;;;;;5861669;28;20053;-81
2024/01/14 10:53:56;;;;;;;9.95;6.47;;;;;;;;;;5877630;28;20048;-80
2024/01/14 10:57:08;;;;;;;12.25;5.53;;;;;;;;;;5877487;28;20048;-81
2024/01/14 11:00:08;;;;;;;14.65;6.38;;;;;;;;;;5893175;28;20139;-82
2024/01/14 11:03:02;;;;;;;13.48;7.15;;;;;;;;;;5877693;28;20046;-81
2024/01/14 11:05:54;;;;;;;6.28;4.18;;;;;;;;;;5862062;28;20049;-82
2024/01/14 11:08:49;;;;;;;16.85;7.15;;;;;;;;;;5877637;28;20495;-82
2024/01/14 11:11:53;;;;;;;15.70;8.02;;;;;;;;;;5861120;28;20049;-81
2024/01/14 11:14:52;;;;;;;12.77;6.80;;;;;;;;;;5894526;28;20132;-81
2024/01/14 11:18:14;;;;;;;20.20;7.75;;;;;;;;;;5861074;28;20414;-82
2024/01/14 11:21:42;;;;;;;27.23;8.48;;;;;;;;;;5861353;28;20052;-83
2024/01/14 11:24:53;;;;;;;12.90;4.75;;;;;;;;;;5861850;28;20088;-82
2024/01/14 11:27:44;;;;;;;12.25;5.30;;;;;;;;;;5877617;28;20091;-82
2024/01/14 11:30:51;;;;;;;14.57;5.25;;;;;;;;;;5861203;28;20045;-82
2024/01/14 11:33:42;;;;;;;12.73;6.07;;;;;;;;;;5894303;28;20451;-82
2024/01/14 11:36:55;;;;;;;8.77;4.00;;;;;;;;;;5862397;28;20045;-81
2024/01/14 11:39:45;;;;;;;9.05;4.25;;;;;;;;;;5877744;28;20045;-82
2024/01/14 11:43:09;;;;;;;8.68;4.65;;;;;;;;;;5860650;28;20049;-82
2024/01/14 11:45:59;;;;;;;9.10;5.55;;;;;;;;;;5869716;28;20531;-81
2024/01/14 11:48:50;;;;;;;13.27;5.75;;;;;;;;;;5861034;28;20045;-82
2024/01/14 11:51:52;;;;;;;14.70;9.43;;;;;;;;;;5875866;28;20065;-82
2024/01/14 11:54:44;;;;;;;34.10;10.45;;;;;;;;;;5858500;28;20048;-81
2024/01/14 11:57:35;;;;;;;20.67;8.27;;;;;;;;;;5859815;28;20061;-82
2024/01/14 12:00:26;;;;;;;8.82;5.20;;;;;;;;;;5863382;28;20171;-82
2024/01/14 12:03:19;;;;;;;12.55;8.57;;;;;;;;;;5879596;28;20053;-82
2024/01/14 12:06:10;;;;;;;14.18;6.78;;;;;;;;;;5863431;28;20048;-81
2024/01/14 12:09:01;;;;;;;16.85;6.78;;;;;;;;;;5881716;28;20060;-81
2024/01/14 12:11:52;;;;;;;14.15;7.25;;;;;;;;;;5866957;28;20070;-82
2024/01/14 12:14:43;;;;;;;17.20;8.57;;;;;;;;;;5864971;28;20371;-82
2024/01/14 12:17:33;;;;;;;9.32;6.05;;;;;;;;;;5866379;28;20383;-82
2024/01/14 12:20:26;;;;;;;10.15;6.07;;;;;;;;;;5864872;28;20277;-81
2024/01/14 12:23:18;;;;;;;15.90;5.38;;;;;;;;;;5881232;28;20049;-82
2024/01/14 12:26:10;;;;;;;17.35;6.45;;;;;;;;;;5897674;28;20037;-82
2024/01/14 12:29:01;;;;;;;15.93;5.95;;;;;;;;;;5864517;28;20045;-80
2024/01/14 12:31:51;;;;;;;23.73;6.70;;;;;;;;;;5864922;28;20053;-81
2024/01/14 12:34:49;;;;;;;7.80;4.53;;;;;;;;;;5883088;28;20068;-81
2024/01/14 12:37:40;;;;;;;11.88;5.40;;;;;;;;;;5857625;28;20045;-82
2024/01/14 12:40:32;;;;;;;9.18;4.90;;;;;;;;;;5864412;28;20495;-81
2024/01/14 12:43:23;;;;;;;12.80;5.95;;;;;;;;;;5864252;28;20045;-81
2024/01/14 12:46:13;;;;;;;12.40;5.68;;;;;;;;;;5864570;28;20179;-81
2024/01/14 12:49:05;;;;;;;9.10;5.03;;;;;;;;;;5864371;28;20052;-81
2024/01/14 12:52:07;;;;;;;12.88;7.45;;;;;;;;;;5879502;28;20052;-81
2024/01/14 12:54:58;;;;;;;15.60;6.72;;;;;;;;;;5880903;28;20053;-81
2024/01/14 12:57:49;;;;;;;6.57;4.45;;;;;;;;;;5865428;28;20431;-82
2024/01/14 13:00:42;;;;;;;19.67;6.60;;;;;;;;;;5863822;28;20495;-82
2024/01/14 13:03:33;;;;;;;16.75;7.72;;;;;;;;;;5880388;28;20048;-82
2024/01/14 13:06:24;;;;;;;16.98;10.63;;;;;;;;;;5864052;28;20291;-81
2024/01/14 13:09:16;;;;;;;10.65;5.72;;;;;;;;;;5863722;28;20088;-81
2024/01/14 13:12:07;;;;;;;8.70;6.07;;;;;;;;;;5863878;28;20077;-81
2024/01/14 13:14:58;;;;;;;6.60;4.90;;;;;;;;;;5865933;28;20053;-81
2024/01/14 13:17:48;;;;;;;12.45;5.82;;;;;;;;;;5863642;28;20045;-81
2024/01/14 13:20:39;;;;;;;11.65;4.20;;;;;;;;;;5863503;28;20087;-81
2024/01/14 13:23:30;;;;;;;11.13;5.35;;;;;;;;;;5863806;28;20048;-81
2024/01/14 13:26:24;;;;;;;15.13;7.35;;;;;;;;;;5863873;28;20076;-81
2024/01/14 13:29:15;;;;;;;14.63;7.22;;;;;;;;;;5863326;28;20050;-80
2024/01/14 13:32:06;;;;;;;9.48;5.05;;;;;;;;;;5864019;28;20037;-81
2024/01/14 13:34:57;;;;;;;6.18;4.90;;;;;;;;;;5864218;28;20049;-81
2024/01/14 13:37:48;;;;;;;11.07;4.68;;;;;;;;;;5863297;28;20517;-81
2024/01/14 13:40:39;;;;;;;10.98;5.43;;;;;;;;;;5863138;28;20041;-81
2024/01/14 13:43:30;;;;;;;9.57;4.40;;;;;;;;;;5864548;28;20041;-81
2024/01/14 13:46:21;;;;;;;14.35;5.70;;;;;;;;;;5863150;28;20053;-82
2024/01/14 13:49:12;;;;;;;9.07;6.13;;;;;;;;;;5864405;28;20415;-82
2024/01/14 13:52:03;;;;;;;19.08;6.22;;;;;;;;;;5864585;28;20049;-81
2024/01/14 13:54:54;;;;;;;10.73;5.90;;;;;;;;;;5863355;28;20132;-81
2024/01/14 13:57:47;;;;;;;12.75;4.40;;;;;;;;;;5879285;28;20048;-81
2024/01/14 14:00:38;;;;;;;10.82;6.43;;;;;;;;;;5864090;28;20128;-82
2024/01/14 14:03:29;;;;;;;16.25;8.02;;;;;;;;;;5862299;28;20042;-82
2024/01/14 14:06:20;;;;;;;15.13;6.32;;;;;;;;;;5862945;28;20053;-81
2024/01/14 14:09:11;;;;;;;8.88;6.53;;;;;;;;;;5862368;28;20569;-81
2024/01/14 14:12:02;;;;;;;25.70;10.10;;;;;;;;;;5879181;28;20049;-81
2024/01/14 14:14:56;;;;;;;21.83;8.15;;;;;;;;;;5895812;28;20046;-82
2024/01/14 14:17:47;;;;;;;28.25;13.02;;;;;;;;;;5863575;28;20049;-82
2024/01/14 14:20:41;;;;;;;20.90;11.75;;;;;;;;;;5878057;28;20041;-81
2024/01/14 14:23:38;;;;;;;16.08;9.25;;;;;;;;;;5878886;28;20500;-81
2024/01/14 14:26:35;;;;;;;24.52;9.10;;;;;;;;;;5862547;28;20044;-82
2024/01/14 14:29:26;;;;;;;12.68;7.38;;;;;;;;;;5862957;28;20045;-81
2024/01/14 14:32:17;;;;;;;13.70;5.45;;;;;;;;;;5878162;28;20057;-82
2024/01/14 14:35:12;;;;;;;9.10;7.68;;;;;;;;;;5863212;28;20045;-82
2024/01/14 14:38:03;;;;;;;15.20;7.20;;;;;;;;;;5863250;28;20045;-81
2024/01/14 14:40:54;;;;;;;6.90;4.40;;;;;;;;;;5863507;28;20128;-81
2024/01/14 14:43:45;;;;;;;10.55;4.55;;;;;;;;;;5877951;28;20084;-82
2024/01/14 14:46:37;;;;;;;14.07;3.65;;;;;;;;;;5861851;28;20041;-81
2024/01/14 14:49:27;;;;;;;7.50;4.38;;;;;;;;;;5878014;28;20203;-81
2024/01/14 14:52:18;;;;;;;11.00;5.90;;;;;;;;;;5861255;28;20052;-81
2024/01/14 14:55:09;;;;;;;10.20;5.18;;;;;;;;;;5861224;28;20054;-81
2024/01/14 14:58:00;;;;;;;8.70;4.43;;;;;;;;;;5878312;28;20048;-80
2024/01/14 15:00:51;;;;;;;5.30;4.10;;;;;;;;;;5862904;28;20470;-80
2024/01/14 15:03:43;;;;;;;13.68;4.85;;;;;;;;;;5862633;28;20045;-81
2024/01/14 15:06:34;;;;;;;8.40;3.28;;;;;;;;;;5860369;28;20046;-80
2024/01/14 15:09:25;;;;;;;6.07;3.08;;;;;;;;;;5861355;28;20107;-80
2024/01/14 15:12:16;;;;;;;9.95;4.70;;;;;;;;;;5877525;28;20060;-81
2024/01/14 15:15:08;;;;;;;8.07;4.00;;;;;;;;;;5862316;28;20046;-81
2024/01/14 15:17:59;;;;;;;11.23;4.38;;;;;;;;;;5877888;28;20053;-81
2024/01/14 15:20:50;;;;;;;6.45;3.92;;;;;;;;;;5861461;28;20049;-82
2024/01/14 15:23:41;;;;;;;6.50;4.10;;;;;;;;;;5860934;28;20045;-82
2024/01/14 15:26:32;;;;;;;10.77;5.22;;;;;;;;;;5877919;28;20033;-81
2024/01/14 15:29:23;;;;;;;10.40;3.78;;;;;;;;;;5877418;28;20045;-82
2024/01/14 15:32:13;;;;;;;7.60;5.00;;;;;;;;;;5860400;28;20060;-81
2024/01/14 15:35:05;;;;;;;8.68;3.58;;;;;;;;;;5861019;28;20046;-81
2024/01/14 15:37:56;;;;;;;10.73;5.93;;;;;;;;;;5861617;28;20049;-81
2024/01/14 15:40:46;;;;;;;8.38;4.82;;;;;;;;;;5877634;28;20068;-81
2024/01/14 15:43:48;;;;;;;10.38;5.35;;;;;;;;;;5860989;28;20073;-80
2024/01/14 15:46:39;;;;;;;4.68;3.42;;;;;;;;;;5861998;28;20049;-82
2024/01/14 15:49:30;;;;;;;9.85;6.57;;;;;;;;;;5862353;28;20498;-82
2024/01/14 15:52:21;;;;;;;14.43;6.80;;;;;;;;;;5860544;28;20147;-82
2024/01/14 15:55:12;;;;;;;12.93;3.92;;;;;;;;;;5860592;28;20044;-81
2024/01/14 15:58:03;;;;;;;10.88;6.57;;;;;;;;;;5893822;28;20041;-81
2024/01/14 16:00:54;;;;;;;10.48;6.53;;;;;;;;;;5861256;28;20041;-82
2024/01/14 16:03:59;;;;;;;13.85;5.90;;;;;;;;;;5861118;28;20045;-82
2024/01/14 16:06:50;;;;;;;16.60;7.40;;;;;;;;;;5860673;28;20308;-82
2024/01/14 16:09:41;;;;;;;12.07;4.93;;;;;;;;;;5860306;28;20053;-82
2024/01/14 16:12:33;;;;;;;12.32;5.22;;;;;;;;;;5860770;28;20049;-82
2024/01/14 16:15:24;;;;;;;15.00;5.97;;;;;;;;;;5893610;28;20061;-82
2024/01/14 16:18:15;;;;;;;12.40;6.95;;;;;;;;;;5861596;28;20053;-81
2024/01/14 16:21:07;;;;;;;11.40;5.63;;;;;;;;;;5860579;28;20045;-81
2024/01/14 16:23:58;;;;;;;12.93;5.22;;;;;;;;;;5860986;28;20092;-81
2024/01/14 16:26:49;;;;;;;12.55;5.68;;;;;;;;;;5876753;28;20049;-82
2024/01/14 16:29:40;;;;;;;18.02;5.63;;;;;;;;;;5860179;28;20411;-81
2024/01/14 16:32:31;;;;;;;17.65;8.30;;;;;;;;;;5876676;28;20049;-82
2024/01/14 16:35:22;;;;;;;13.68;7.28;;;;;;;;;;5860037;28;20060;-80
2024/01/14 16:38:13;;;;;;;12.52;6.82;;;;;;;;;;5876374;28;20144;-82
2024/01/14 16:41:04;;;;;;;8.98;5.18;;;;;;;;;;5860079;28;20041;-82
2024/01/14 16:43:59;;;;;;;10.20;4.57;;;;;;;;;;5862371;28;20124;-82
2024/01/14 16:46:50;;;;;;;17.92;6.95;;;;;;;;;;5864809;28;20041;-82
2024/01/14 16:49:41;;;;;;;10.80;5.90;;;;;;;;;;5864219;28;20037;-82
2024/01/14 16:52:32;;;;;;;12.50;6.50;;;;;;;;;;5864429;28;20121;-82
2024/01/14 16:55:22;;;;;;;25.00;8.05;;;;;;;;;;5865203;28;20053;-82
2024/01/14 16:58:14;;;;;;;14.13;4.85;;;;;;;;;;5865266;28;20499;-82
2024/01/14 17:01:05;;;;;;;7.82;4.70;;;;;;;;;;5864321;28;20403;-81
2024/01/14 17:04:08;;;;;;;12.32;4.93;;;;;;;;;;5865049;28;20048;-82
2024/01/14 17:07:06;;;;;;;8.30;3.72;;;;;;;;;;5864606;28;20049;-82